Time;durP1;ratioP1;P1;durP2;ratioP2;P2;SDS_P1;SDS_P2;PMS_P1;PMS_P2;Temp;Humidity;BMP_temperature;BMP_pressure;BME280_temperature;BME280_humidity;BME280_pressure;Samples;Min_cycle;Max_cycle;Signal;HPM_P1;HPM_P2
2023/05/24 00:01:09;;;;;;;14.05;3.95;;;10.60;99.90;;;;;;5038435;28;20056;-76
2023/05/24 00:03:38;;;;;;;15.73;3.78;;;9.30;99.90;;;;;;5022433;28;20056;-78
2023/05/24 00:06:07;;;;;;;12.43;3.22;;;10.40;99.90;;;;;;5039876;28;20061;-74
2023/05/24 00:08:33;;;;;;;20.13;4.13;;;10.60;99.90;;;;;;5037745;28;20059;-75
2023/05/24 00:11:00;;;;;;;19.17;4.10;;;10.60;99.90;;;;;;5037480;28;20049;-76
2023/05/24 00:13:26;;;;;;;14.20;3.97;;;10.60;99.90;;;;;;4971771;28;20553;-74
2023/05/24 00:15:54;;;;;;;14.68;4.63;;;10.60;99.90;;;;;;4990875;28;20099;-75
2023/05/24 00:18:22;;;;;;;16.83;4.93;;;10.60;99.90;;;;;;4989712;28;20050;-75
2023/05/24 00:20:50;;;;;;;17.30;4.53;;;10.60;99.90;;;;;;5006199;28;21869;-78
2023/05/24 00:23:16;;;;;;;15.05;3.60;;;10.60;99.90;;;;;;4974808;28;20070;-75
2023/05/24 00:25:42;;;;;;;13.48;3.40;;;10.60;99.90;;;;;;5007524;28;20434;-76
2023/05/24 00:28:07;;;;;;;16.75;4.07;;;10.60;99.90;;;;;;4990178;28;20073;-76
2023/05/24 00:30:33;;;;;;;14.43;3.13;;;10.60;99.90;;;;;;4991257;28;20489;-76
2023/05/24 00:32:59;;;;;;;13.57;3.50;;;10.50;99.90;;;;;;5005259;28;20160;-76
2023/05/24 00:35:24;;;;;;;15.75;4.05;;;10.50;99.90;;;;;;4975068;28;20886;-79
2023/05/24 00:37:50;;;;;;;10.35;3.63;;;10.50;99.90;;;;;;5006387;28;20077;-76
2023/05/24 00:40:23;;;;;;;21.55;4.22;;;10.50;99.90;;;;;;4990000;28;20129;-75
2023/05/24 00:42:49;;;;;;;18.73;3.85;;;10.60;99.90;;;;;;4971898;28;20121;-75
2023/05/24 00:45:22;;;;;;;14.82;3.40;;;10.50;99.90;;;;;;5061047;28;20063;-75
2023/05/24 00:48:03;;;;;;;16.65;3.70;;;10.50;99.90;;;;;;5025118;28;20082;-76
2023/05/24 00:50:28;;;;;;;16.98;3.50;;;10.50;99.90;;;;;;5020776;28;20045;-75
2023/05/24 00:52:57;;;;;;;14.90;3.13;;;10.60;99.90;;;;;;5019710;28;20112;-77
2023/05/24 00:55:23;;;;;;;15.43;3.42;;;10.50;99.90;;;;;;5037592;28;20052;-75
2023/05/24 00:57:51;;;;;;;20.00;3.55;;;10.50;99.90;;;;;;5036612;28;20455;-75
2023/05/24 01:00:17;;;;;;;19.20;3.60;;;10.60;99.90;;;;;;5020598;28;20052;-75
2023/05/24 01:02:47;;;;;;;19.50;4.10;;;10.60;99.90;;;;;;5053413;28;20060;-77
2023/05/24 01:05:17;;;;;;;15.35;3.95;;;10.60;99.90;;;;;;5039661;28;20056;-75
2023/05/24 01:08:06;;;;;;;18.77;3.47;;;10.60;99.90;;;;;;5038054;28;20437;-75
2023/05/24 01:10:41;;;;;;;17.25;3.03;;;10.60;99.90;;;;;;5034452;28;20119;-77
2023/05/24 01:13:34;;;;;;;18.08;3.95;;;10.60;99.90;;;;;;5054745;28;20138;-76
2023/05/24 01:16:10;;;;;;;20.75;3.75;;;10.60;99.90;;;;;;5032800;28;20045;-76
2023/05/24 01:18:46;;;;;;;16.80;3.63;;;10.60;99.90;;;;;;5037012;28;20059;-76
2023/05/24 01:21:47;;;;;;;18.63;3.25;;;10.60;99.90;;;;;;5052372;28;20075;-76
2023/05/24 01:24:38;;;;;;;14.60;3.10;;;10.60;99.90;;;;;;5053400;28;20102;-76
2023/05/24 01:27:09;;;;;;;14.82;3.28;;;10.70;99.90;;;;;;5069154;28;20052;-75
2023/05/24 01:29:38;;;;;;;17.85;3.53;;;10.60;99.90;;;;;;5035812;28;20041;-75
2023/05/24 01:32:05;;;;;;;13.85;3.08;;;10.60;99.90;;;;;;5037718;28;20048;-78
2023/05/24 01:34:32;;;;;;;12.38;3.00;;;10.60;99.90;;;;;;5019611;28;20381;-74
2023/05/24 01:36:58;;;;;;;17.92;3.53;;;10.60;99.90;;;;;;5037141;28;20068;-74
2023/05/24 01:39:27;;;;;;;13.15;3.17;;;10.70;99.90;;;;;;5054307;28;20209;-75
2023/05/24 01:42:10;;;;;;;17.15;3.70;;;10.70;99.90;;;;;;5019571;28;20057;-76
2023/05/24 01:44:55;;;;;;;16.55;4.35;;;10.60;99.90;;;;;;5068979;28;20147;-77
2023/05/24 01:47:33;;;;;;;15.02;3.15;;;10.70;99.90;;;;;;5037925;28;20130;-77
2023/05/24 01:50:21;;;;;;;14.02;4.07;;;10.70;99.90;;;;;;5039868;28;20060;-78
2023/05/24 01:52:50;;;;;;;16.25;3.75;;;10.70;99.90;;;;;;5039093;28;20044;-75
2023/05/24 01:55:23;;;;;;;15.95;3.33;;;10.70;99.90;;;;;;5055007;28;20114;-77
2023/05/24 01:57:53;;;;;;;14.18;3.67;;;10.40;99.90;;;;;;5037277;28;20041;-76
2023/05/24 02:00:22;;;;;;;14.82;3.60;;;10.70;99.90;;;;;;5022967;28;20135;-77
2023/05/24 02:02:48;;;;;;;15.88;3.55;;;10.60;99.90;;;;;;5023083;28;20053;-79
2023/05/24 02:05:14;;;;;;;12.50;3.30;;;10.50;99.90;;;;;;5021483;28;20795;-76
2023/05/24 02:07:40;;;;;;;17.15;3.17;;;10.70;99.90;;;;;;5017724;28;20049;-78
2023/05/24 02:10:08;;;;;;;12.35;4.20;;;10.70;99.90;;;;;;5022916;28;20052;-76
2023/05/24 02:12:39;;;;;;;16.38;4.35;;;10.70;99.90;;;;;;5036994;28;20049;-75
2023/05/24 02:15:05;;;;;;;13.63;3.25;;;10.60;99.90;;;;;;5036884;28;20056;-77
2023/05/24 02:17:34;;;;;;;15.77;3.08;;;10.70;99.90;;;;;;5039882;28;20178;-77
2023/05/24 02:20:00;;;;;;;14.95;3.42;;;10.60;99.90;;;;;;5023292;28;22102;-76
2023/05/24 02:22:27;;;;;;;14.48;3.10;;;10.70;99.90;;;;;;5022309;28;20053;-75
2023/05/24 02:24:53;;;;;;;9.40;3.13;;;10.60;99.90;;;;;;5021529;28;20172;-77
2023/05/24 02:27:19;;;;;;;11.73;3.35;;;10.60;99.90;;;;;;5039140;28;20094;-76
2023/05/24 02:29:44;;;;;;;16.05;3.30;;;10.60;99.90;;;;;;5006183;28;20044;-75
2023/05/24 02:32:10;;;;;;;14.88;3.30;;;10.60;99.90;;;;;;5038216;28;20057;-77
2023/05/24 02:34:36;;;;;;;12.82;3.28;;;10.60;99.90;;;;;;5054811;28;20506;-74
2023/05/24 02:37:03;;;;;;;14.18;3.60;;;10.60;99.90;;;;;;5036149;28;20092;-76
2023/05/24 02:39:29;;;;;;;12.75;2.97;;;10.60;99.90;;;;;;5023303;28;20159;-74
2023/05/24 02:42:04;;;;;;;20.05;3.38;;;10.60;99.90;;;;;;5007173;28;20041;-76
2023/05/24 02:44:36;;;;;;;17.15;3.92;;;10.60;99.90;;;;;;5039136;28;20053;-75
2023/05/24 02:47:20;;;;;;;15.93;3.53;;;12.30;99.90;;;;;;5029045;28;20045;-75
2023/05/24 02:49:50;;;;;;;10.93;3.17;;;10.60;99.90;;;;;;5038132;28;20063;-76
2023/05/24 02:52:20;;;;;;;9.68;2.95;;;10.60;99.90;;;;;;5035343;28;20590;-75
2023/05/24 02:54:49;;;;;;;15.45;3.20;;;10.70;99.90;;;;;;5000095;28;20071;-78
2023/05/24 02:57:15;;;;;;;13.77;3.30;;;10.60;99.90;;;;;;5040503;28;20473;-75
2023/05/24 02:59:42;;;;;;;13.00;3.05;;;10.60;99.90;;;;;;5021274;28;20052;-75
2023/05/24 03:02:08;;;;;;;14.43;3.20;;;10.60;99.90;;;;;;5040134;28;20044;-74
2023/05/24 03:04:33;;;;;;;13.90;3.15;;;10.60;99.90;;;;;;5005481;28;20480;-74
2023/05/24 03:06:59;;;;;;;15.05;3.13;;;10.60;99.90;;;;;;5056122;28;20082;-76
2023/05/24 03:09:26;;;;;;;12.70;3.30;;;10.60;99.90;;;;;;5054703;28;20057;-78
2023/05/24 03:11:53;;;;;;;11.25;3.35;;;10.60;99.90;;;;;;5039634;28;20045;-75
2023/05/24 03:14:21;;;;;;;13.88;3.10;;;10.60;99.90;;;;;;5037993;28;20056;-74
2023/05/24 03:16:50;;;;;;;12.57;3.03;;;10.60;99.90;;;;;;5023572;28;20106;-74
2023/05/24 03:19:16;;;;;;;15.25;3.65;;;10.60;99.90;;;;;;5037763;28;20533;-75
2023/05/24 03:21:43;;;;;;;12.73;3.30;;;10.50;99.90;;;;;;5005801;28;20044;-75
2023/05/24 03:24:12;;;;;;;14.68;3.80;;;10.60;99.90;;;;;;5039155;28;20048;-77
2023/05/24 03:26:50;;;;;;;18.42;3.22;;;10.60;99.90;;;;;;5024930;28;20114;-74
2023/05/24 03:29:16;;;;;;;18.83;3.40;;;10.60;99.90;;;;;;5054114;28;20055;-77
2023/05/24 03:31:42;;;;;;;16.58;3.63;;;10.60;99.90;;;;;;5021134;28;20041;-77
2023/05/24 03:34:08;;;;;;;15.05;3.67;;;10.60;99.90;;;;;;5006608;28;20045;-74
2023/05/24 03:36:33;;;;;;;12.18;4.28;;;10.60;99.90;;;;;;5023252;28;20127;-74
2023/05/24 03:38:59;;;;;;;12.77;3.38;;;10.50;99.90;;;;;;5013222;28;20049;-74
2023/05/24 03:41:26;;;;;;;12.65;3.10;;;10.60;99.90;;;;;;5019545;28;20099;-77
2023/05/24 03:43:52;;;;;;;16.83;3.70;;;10.50;99.90;;;;;;5054210;28;20048;-76
2023/05/24 03:46:18;;;;;;;16.58;3.42;;;10.60;99.90;;;;;;5023046;28;20094;-75
2023/05/24 03:48:43;;;;;;;12.10;3.58;;;10.60;99.90;;;;;;5021822;28;20056;-76
2023/05/24 03:51:09;;;;;;;15.27;3.70;;;10.60;99.90;;;;;;5019925;28;20048;-76
2023/05/24 03:53:41;;;;;;;12.55;3.28;;;10.60;99.90;;;;;;5017178;28;20080;-78
2023/05/24 03:56:12;;;;;;;18.93;3.60;;;10.60;99.90;;;;;;5038638;28;20052;-75
2023/05/24 03:58:44;;;;;;;18.60;3.50;;;10.50;99.90;;;;;;4972877;28;20072;-75
2023/05/24 04:01:10;;;;;;;14.02;3.05;;;10.60;99.90;;;;;;5020919;28;20056;-75
2023/05/24 04:03:39;;;;;;;16.70;3.00;;;10.60;99.90;;;;;;5003486;28;20041;-76
2023/05/24 04:06:12;;;;;;;17.15;3.63;;;10.60;99.90;;;;;;5040964;28;20048;-74
2023/05/24 04:08:39;;;;;;;19.08;3.85;;;10.60;99.90;;;;;;5038451;28;20045;-74
2023/05/24 04:11:05;;;;;;;10.45;3.22;;;10.60;99.90;;;;;;4984079;28;20048;-75
2023/05/24 04:13:37;;;;;;;13.98;3.22;;;10.60;99.90;;;;;;5021947;28;20055;-75
2023/05/24 04:16:03;;;;;;;10.77;3.00;;;10.60;99.90;;;;;;5018608;28;20040;-74
2023/05/24 04:18:29;;;;;;;16.13;3.13;;;10.60;99.90;;;;;;5018736;28;20499;-78
2023/05/24 04:20:59;;;;;;;13.98;3.33;;;10.60;99.90;;;;;;5017039;28;20475;-74
2023/05/24 04:23:25;;;;;;;14.05;3.13;;;10.70;99.90;;;;;;5021611;28;20131;-75
2023/05/24 04:25:51;;;;;;;14.55;3.65;;;10.70;99.90;;;;;;5021797;28;20045;-75
2023/05/24 04:28:21;;;;;;;14.75;3.53;;;10.70;99.90;;;;;;5038257;28;20072;-74
2023/05/24 04:30:47;;;;;;;14.00;3.65;;;10.70;99.90;;;;;;5021711;28;20047;-77
2023/05/24 04:33:16;;;;;;;14.98;3.33;;;10.70;99.90;;;;;;5058372;28;20064;-76
2023/05/24 04:35:43;;;;;;;16.60;3.53;;;10.80;99.90;;;;;;5041901;28;20053;-75
2023/05/24 04:38:14;;;;;;;17.73;3.53;;;10.80;99.90;;;;;;5041192;28;20055;-77
2023/05/24 04:40:43;;;;;;;16.83;3.97;;;10.80;99.90;;;;;;5039244;28;20427;-74
2023/05/24 04:43:11;;;;;;;16.02;4.03;;;10.80;99.90;;;;;;5038693;28;20049;-75
2023/05/24 04:45:40;;;;;;;14.25;3.58;;;10.80;99.90;;;;;;5006996;28;20041;-79
2023/05/24 04:48:06;;;;;;;21.70;3.88;;;10.80;99.90;;;;;;5040854;28;20049;-77
2023/05/24 04:50:39;;;;;;;16.33;3.10;;;10.80;99.90;;;;;;5038542;28;21265;-77
2023/05/24 04:53:11;;;;;;;15.27;3.58;;;10.80;99.90;;;;;;5041134;28;20346;-76
2023/05/24 04:55:37;;;;;;;13.50;3.22;;;10.90;99.90;;;;;;5040016;28;20048;-75
2023/05/24 04:58:03;;;;;;;17.50;3.38;;;10.90;99.90;;;;;;5006281;28;20428;-76
2023/05/24 05:00:29;;;;;;;12.35;3.03;;;10.80;99.90;;;;;;5040881;28;20038;-75
2023/05/24 05:02:54;;;;;;;18.92;4.15;;;9.40;99.90;;;;;;5041726;28;20480;-74
2023/05/24 05:05:21;;;;;;;15.30;3.45;;;10.90;99.90;;;;;;5002992;28;20045;-75
2023/05/24 05:07:56;;;;;;;17.65;3.97;;;10.90;99.90;;;;;;5025405;28;20123;-75
2023/05/24 05:10:22;;;;;;;15.38;3.92;;;11.00;99.90;;;;;;5041343;28;20093;-76
2023/05/24 05:12:58;;;;;;;15.88;4.25;;;10.90;99.90;;;;;;5038833;28;20102;-77
2023/05/24 05:15:32;;;;;;;16.02;3.05;;;11.10;99.90;;;;;;5038422;28;20110;-77
2023/05/24 05:17:58;;;;;;;17.90;3.80;;;11.10;99.90;;;;;;5043235;28;20049;-75
2023/05/24 05:20:25;;;;;;;12.90;3.17;;;11.10;99.90;;;;;;5023957;28;20040;-80
2023/05/24 05:22:51;;;;;;;12.10;3.35;;;11.10;99.90;;;;;;5032356;28;20041;-80
2023/05/24 05:25:17;;;;;;;14.98;3.85;;;11.10;99.90;;;;;;5047356;28;20048;-75
2023/05/24 05:27:43;;;;;;;13.35;3.25;;;11.20;99.90;;;;;;5060354;28;20049;-74
2023/05/24 05:30:09;;;;;;;21.23;4.10;;;11.20;99.90;;;;;;4989287;28;20049;-82
2023/05/24 05:32:35;;;;;;;23.55;4.15;;;11.20;99.90;;;;;;5043011;28;20040;-78
2023/05/24 05:35:01;;;;;;;19.30;3.80;;;11.30;99.90;;;;;;5029170;28;20049;-78
2023/05/24 05:37:30;;;;;;;22.00;4.88;;;11.30;99.90;;;;;;5059741;28;20081;-79
2023/05/24 05:39:56;;;;;;;14.18;3.50;;;11.40;99.90;;;;;;5029334;28;20061;-81
2023/05/24 05:42:22;;;;;;;13.50;3.40;;;12.10;99.90;;;;;;5061186;28;20048;-78
2023/05/24 05:44:54;;;;;;;18.95;4.03;;;11.60;99.90;;;;;;5040852;28;20053;-75
2023/05/24 05:47:19;;;;;;;15.43;3.58;;;11.60;99.90;;;;;;5046788;28;20064;-77
2023/05/24 05:49:45;;;;;;;12.90;3.40;;;11.70;99.90;;;;;;5033106;28;20045;-79
2023/05/24 05:52:11;;;;;;;18.17;4.13;;;11.80;99.90;;;;;;5031591;28;20143;-74
2023/05/24 05:54:37;;;;;;;16.05;3.25;;;11.90;99.90;;;;;;5053496;28;20123;-75
2023/05/24 05:57:04;;;;;;;20.75;4.38;;;12.00;99.90;;;;;;5050681;28;20056;-77
2023/05/24 05:59:34;;;;;;;18.52;4.00;;;12.10;99.90;;;;;;5046883;28;20735;-75
2023/05/24 06:02:02;;;;;;;15.35;4.28;;;12.10;99.90;;;;;;5014560;28;20056;-77
2023/05/24 06:05:03;;;;;;;14.30;3.22;;;12.20;99.90;;;;;;5044951;28;20111;-78
2023/05/24 06:07:44;;;;;;;13.13;3.42;;;12.40;99.90;;;;;;5045285;28;20228;-76
2023/05/24 06:10:15;;;;;;;10.38;3.20;;;12.40;99.90;;;;;;5046497;28;20060;-75
2023/05/24 06:12:47;;;;;;;14.23;3.30;;;12.50;99.90;;;;;;5046386;28;20076;-79
2023/05/24 06:15:13;;;;;;;15.60;4.25;;;12.60;99.90;;;;;;5048142;28;20541;-77
2023/05/24 06:17:41;;;;;;;13.02;3.20;;;12.70;99.90;;;;;;5049214;28;20076;-79
2023/05/24 06:20:14;;;;;;;15.68;3.00;;;12.80;99.90;;;;;;5050402;28;20049;-76
2023/05/24 06:22:48;;;;;;;19.88;3.90;;;13.00;99.90;;;;;;5019367;28;20191;-77
2023/05/24 06:25:18;;;;;;;11.82;3.00;;;13.10;99.90;;;;;;5050115;28;20114;-78
2023/05/24 06:27:43;;;;;;;10.80;3.40;;;13.20;99.90;;;;;;5066275;28;20099;-77
2023/05/24 06:30:09;;;;;;;93.03;12.32;;;13.30;99.90;;;;;;5032300;28;20064;-78
2023/05/24 06:32:36;;;;;;;36.67;5.47;;;13.40;99.90;;;;;;5048359;28;20055;-77
2023/05/24 06:35:03;;;;;;;23.88;4.68;;;13.50;99.90;;;;;;5032672;28;20044;-76
2023/05/24 06:37:30;;;;;;;10.70;3.55;;;13.60;99.90;;;;;;5028308;28;20057;-78
2023/05/24 06:39:56;;;;;;;16.00;3.13;;;13.70;99.90;;;;;;5012528;28;20081;-78
2023/05/24 06:42:22;;;;;;;12.40;3.25;;;13.60;99.90;;;;;;5004192;28;20062;-77
2023/05/24 06:44:50;;;;;;;15.13;3.25;;;13.80;99.90;;;;;;5011004;28;20592;-76
2023/05/24 06:47:16;;;;;;;14.25;3.10;;;13.90;99.90;;;;;;5010069;28;20112;-77
2023/05/24 06:49:44;;;;;;;14.43;2.75;;;14.00;99.90;;;;;;4995591;28;20060;-77
2023/05/24 06:52:10;;;;;;;11.70;3.63;;;14.20;99.90;;;;;;4994719;28;20144;-78
2023/05/24 06:54:44;;;;;;;10.05;2.78;;;14.30;99.90;;;;;;5003799;28;20069;-78
2023/05/24 06:57:10;;;;;;;11.68;3.03;;;14.30;99.90;;;;;;5009827;28;20382;-77
2023/05/24 06:59:36;;;;;;;11.43;2.78;;;14.40;99.90;;;;;;5028334;28;20084;-77
2023/05/24 07:02:04;;;;;;;10.55;2.42;;;14.60;99.90;;;;;;5003918;28;20072;-76
2023/05/24 07:04:31;;;;;;;7.93;2.65;;;14.70;99.90;;;;;;4977659;28;20049;-77
2023/05/24 07:06:57;;;;;;;12.85;3.10;;;14.80;99.90;;;;;;5010072;28;20050;-77
2023/05/24 07:09:23;;;;;;;9.02;3.58;;;14.90;99.90;;;;;;5058422;28;20052;-77
2023/05/24 07:11:52;;;;;;;9.05;2.60;;;14.70;99.90;;;;;;5048941;28;20064;-76
2023/05/24 07:14:21;;;;;;;12.65;3.10;;;15.30;99.90;;;;;;5031830;28;20056;-76
2023/05/24 07:16:47;;;;;;;9.98;3.40;;;15.50;99.90;;;;;;5030427;28;20041;-75
2023/05/24 07:19:26;;;;;;;10.48;2.88;;;15.60;99.90;;;;;;5015279;28;20065;-76
2023/05/24 07:21:52;;;;;;;12.75;2.70;;;15.90;99.90;;;;;;5047806;28;20041;-77
2023/05/24 07:24:24;;;;;;;11.48;2.72;;;16.00;99.90;;;;;;5016969;28;20106;-76
2023/05/24 07:26:57;;;;;;;13.55;3.15;;;16.20;99.90;;;;;;5045984;28;20190;-77
2023/05/24 07:29:24;;;;;;;10.35;3.00;;;16.30;99.90;;;;;;5048276;28;20163;-76
2023/05/24 07:31:57;;;;;;;7.90;2.45;;;16.40;99.90;;;;;;5031536;28;20045;-76
2023/05/24 07:34:26;;;;;;;10.95;2.90;;;16.70;99.90;;;;;;5046774;28;20072;-77
2023/05/24 07:36:52;;;;;;;12.32;2.85;;;17.00;99.90;;;;;;5028951;28;20067;-77
2023/05/24 07:39:18;;;;;;;8.18;2.75;;;17.10;99.90;;;;;;5048028;28;20058;-77
2023/05/24 07:41:46;;;;;;;13.52;2.97;;;17.30;99.90;;;;;;5047400;28;20053;-77
2023/05/24 07:44:14;;;;;;;23.42;4.38;;;17.40;99.90;;;;;;5047827;28;20590;-78
2023/05/24 07:46:44;;;;;;;15.00;3.20;;;17.40;99.90;;;;;;5047095;28;20045;-77
2023/05/24 07:49:10;;;;;;;12.98;3.15;;;17.50;99.90;;;;;;5014847;28;20049;-83
2023/05/24 07:51:36;;;;;;;11.40;3.30;;;17.50;99.90;;;;;;5028499;28;20119;-73
2023/05/24 07:54:05;;;;;;;12.85;3.45;;;17.40;99.90;;;;;;5039243;28;20048;-76
2023/05/24 07:56:32;;;;;;;14.85;3.05;;;17.40;99.90;;;;;;5044152;28;20049;-75
2023/05/24 07:59:03;;;;;;;12.75;2.63;;;16.70;99.90;;;;;;5025752;28;20383;-74
2023/05/24 08:01:35;;;;;;;9.52;2.92;;;17.70;99.90;;;;;;5039862;28;20151;-77
2023/05/24 08:04:07;;;;;;;15.82;3.20;;;18.00;99.90;;;;;;5041370;28;20040;-73
2023/05/24 08:06:33;;;;;;;8.48;2.90;;;18.20;99.90;;;;;;5074389;28;20139;-73
2023/05/24 08:09:00;;;;;;;8.75;2.85;;;18.00;99.90;;;;;;5061456;28;20036;-75
2023/05/24 08:11:26;;;;;;;13.35;3.00;;;17.70;99.90;;;;;;5043147;28;20053;-74
2023/05/24 08:13:52;;;;;;;8.75;2.88;;;17.80;99.90;;;;;;5044581;28;20507;-73
2023/05/24 08:16:18;;;;;;;10.60;2.70;;;17.70;99.90;;;;;;5026975;28;20057;-74
2023/05/24 08:18:44;;;;;;;9.70;2.63;;;17.70;99.90;;;;;;5026884;28;20037;-75
2023/05/24 08:21:10;;;;;;;9.38;2.30;;;17.70;99.90;;;;;;5028087;28;20063;-75
2023/05/24 08:23:36;;;;;;;10.40;3.03;;;17.90;99.90;;;;;;5042488;28;20102;-74
2023/05/24 08:26:02;;;;;;;10.88;2.85;;;18.00;99.90;;;;;;5044365;28;20048;-74
2023/05/24 08:28:37;;;;;;;10.05;2.75;;;18.00;99.90;;;;;;5045136;28;20579;-75
2023/05/24 08:31:06;;;;;;;7.78;2.30;;;18.20;99.90;;;;;;5029537;28;20053;-74
2023/05/24 08:33:35;;;;;;;11.65;2.65;;;18.30;99.90;;;;;;5029093;28;20055;-74
2023/05/24 08:36:00;;;;;;;9.32;2.50;;;18.60;99.90;;;;;;5046788;28;20058;-75
2023/05/24 08:38:31;;;;;;;11.02;2.65;;;18.70;99.90;;;;;;5045789;28;20108;-74
2023/05/24 08:40:58;;;;;;;9.70;2.55;;;18.80;99.90;;;;;;5029817;28;20048;-76
2023/05/24 08:43:25;;;;;;;8.90;2.47;;;18.80;99.90;;;;;;5042440;28;20075;-73
2023/05/24 08:45:52;;;;;;;9.27;2.55;;;18.90;99.90;;;;;;5028896;28;20052;-77
2023/05/24 08:48:18;;;;;;;8.68;2.75;;;18.90;99.90;;;;;;5044497;28;20472;-74
2023/05/24 08:50:44;;;;;;;5.95;2.25;;;18.90;99.90;;;;;;5046674;28;20079;-74
2023/05/24 08:53:11;;;;;;;9.45;2.60;;;19.10;99.80;;;;;;5028642;28;20100;-74
2023/05/24 08:55:37;;;;;;;8.57;2.50;;;19.10;99.80;;;;;;5013147;28;20049;-74
2023/05/24 08:58:04;;;;;;;9.88;2.85;;;19.30;99.40;;;;;;5049458;28;20049;-74
2023/05/24 09:00:30;;;;;;;11.13;3.00;;;19.30;99.00;;;;;;5066135;28;20053;-72
2023/05/24 09:02:57;;;;;;;8.80;2.30;;;19.40;98.90;;;;;;5042259;28;20052;-74
2023/05/24 09:05:24;;;;;;;7.75;2.58;;;19.40;98.90;;;;;;5028327;28;20040;-73
2023/05/24 09:07:51;;;;;;;10.68;2.65;;;19.50;98.40;;;;;;5043904;28;20041;-73
2023/05/24 09:10:20;;;;;;;9.40;2.67;;;19.60;98.20;;;;;;5043672;28;20052;-80
2023/05/24 09:12:50;;;;;;;8.23;2.40;;;19.90;98.10;;;;;;5046525;28;20075;-76
2023/05/24 09:15:18;;;;;;;9.50;2.50;;;20.10;97.90;;;;;;5049373;28;20064;-76
2023/05/24 09:17:46;;;;;;;8.13;3.00;;;20.20;97.30;;;;;;5051080;28;20056;-77
2023/05/24 09:20:15;;;;;;;7.22;2.55;;;19.90;97.30;;;;;;5018175;28;20183;-76
2023/05/24 09:22:42;;;;;;;5.68;2.30;;;20.00;97.50;;;;;;5033141;28;20308;-77
2023/05/24 09:25:11;;;;;;;8.25;2.38;;;20.30;97.40;;;;;;5049963;28;20067;-77
2023/05/24 09:27:37;;;;;;;8.77;2.70;;;20.60;97.00;;;;;;5049212;28;20540;-76
2023/05/24 09:30:11;;;;;;;8.18;2.35;;;20.80;96.50;;;;;;5050157;28;20060;-77
2023/05/24 09:32:59;;;;;;;8.77;2.40;;;20.90;95.70;;;;;;5026719;28;20056;-76
2023/05/24 09:35:27;;;;;;;8.13;2.47;;;21.00;94.50;;;;;;5048932;28;20063;-76
2023/05/24 09:37:56;;;;;;;9.88;2.58;;;21.10;95.30;;;;;;5015298;28;20514;-76
2023/05/24 09:40:22;;;;;;;9.27;2.75;;;21.00;95.20;;;;;;5049999;28;20059;-77
2023/05/24 09:43:08;;;;;;;8.13;2.53;;;20.70;95.00;;;;;;5033560;28;20077;-77
2023/05/24 09:45:45;;;;;;;7.72;2.15;;;20.80;94.80;;;;;;5032876;28;20060;-77
2023/05/24 09:48:16;;;;;;;10.68;2.35;;;20.80;95.40;;;;;;5033202;28;20577;-77
2023/05/24 09:50:46;;;;;;;8.13;2.60;;;20.70;95.50;;;;;;5041214;28;20061;-79
2023/05/24 09:53:20;;;;;;;6.88;2.10;;;20.60;95.30;;;;;;5049944;28;20464;-77
2023/05/24 09:55:53;;;;;;;7.90;2.80;;;20.40;95.20;;;;;;5015915;28;20146;-77
2023/05/24 09:58:21;;;;;;;11.90;2.75;;;20.20;95.10;;;;;;5032498;28;20049;-76
2023/05/24 10:00:49;;;;;;;9.20;2.75;;;20.20;95.50;;;;;;5032843;28;20059;-77
2023/05/24 10:03:16;;;;;;;7.13;2.42;;;20.20;95.70;;;;;;5048961;28;20064;-77
2023/05/24 10:05:44;;;;;;;8.30;2.72;;;20.10;95.40;;;;;;4998544;28;20080;-76
2023/05/24 10:08:13;;;;;;;8.18;2.35;;;20.10;95.50;;;;;;5028402;28;20056;-74
2023/05/24 10:10:40;;;;;;;7.90;2.22;;;20.30;95.40;;;;;;5046357;28;20049;-73
2023/05/24 10:13:06;;;;;;;7.63;2.30;;;20.10;95.30;;;;;;5030220;28;20155;-73
2023/05/24 10:15:38;;;;;;;6.78;2.20;;;19.80;95.30;;;;;;5046516;28;20045;-73
2023/05/24 10:18:07;;;;;;;7.78;2.08;;;19.80;95.60;;;;;;5064543;28;20048;-73
2023/05/24 10:20:34;;;;;;;8.82;2.47;;;19.60;95.60;;;;;;5031239;28;20064;-75
2023/05/24 10:23:29;;;;;;;10.85;2.42;;;19.60;95.80;;;;;;5026296;28;20132;-75
2023/05/24 10:29:36;;;;;;;8.27;2.40;;;19.40;95.00;;;;;;5037779;28;20052;-80
2023/05/24 10:32:45;;;;;;;7.20;2.13;;;19.50;95.70;;;;;;5054736;28;20188;-78
2023/05/24 10:35:43;;;;;;;8.32;2.28;;;19.50;95.40;;;;;;5039583;28;20048;-76
2023/05/24 10:38:10;;;;;;;6.57;2.00;;;19.60;94.80;;;;;;5039589;28;20083;-76
2023/05/24 10:41:13;;;;;;;8.13;2.15;;;19.60;95.50;;;;;;5015396;28;20565;-79
2023/05/24 10:44:30;;;;;;;6.72;2.13;;;19.30;95.50;;;;;;4972775;28;20051;-77
2023/05/24 10:47:37;;;;;;;7.80;1.92;;;19.10;95.60;;;;;;5001265;28;20060;-77
2023/05/24 10:50:49;;;;;;;6.00;2.28;;;19.80;96.00;;;;;;5016299;28;20041;-76
2023/05/24 10:53:56;;;;;;;9.98;2.47;;;19.30;95.30;;;;;;5017196;28;20569;-78
2023/05/24 10:57:04;;;;;;;8.65;2.40;;;19.30;95.70;;;;;;4991262;28;20053;-76
2023/05/24 10:59:56;;;;;;;9.95;2.78;;;19.20;95.90;;;;;;5000685;28;20133;-76
2023/05/24 11:02:47;;;;;;;6.63;2.17;;;19.20;95.90;;;;;;5001226;28;20057;-75
2023/05/24 11:05:28;;;;;;;7.25;2.38;;;19.40;96.10;;;;;;5018532;28;20061;-76
2023/05/24 11:08:21;;;;;;;11.63;2.83;;;19.30;96.10;;;;;;5019036;28;20102;-77
2023/05/24 11:11:37;;;;;;;6.60;2.22;;;19.40;95.80;;;;;;5017046;28;20192;-76
2023/05/24 11:15:01;;;;;;;8.15;2.53;;;19.40;96.00;;;;;;4999908;28;20099;-75
2023/05/24 11:18:20;;;;;;;7.75;2.28;;;19.60;96.10;;;;;;5009021;28;20307;-76
2023/05/24 11:21:08;;;;;;;6.40;2.08;;;19.80;94.90;;;;;;5002728;28;20053;-79
2023/05/24 11:23:57;;;;;;;6.35;2.42;;;20.00;95.60;;;;;;5021258;28;20042;-77
2023/05/24 11:26:56;;;;;;;7.47;2.20;;;19.80;95.00;;;;;;5004993;28;20144;-78
2023/05/24 11:29:43;;;;;;;7.07;2.08;;;19.90;94.90;;;;;;5036727;28;20049;-78
2023/05/24 11:32:46;;;;;;;8.23;2.50;;;19.90;94.90;;;;;;5036127;28;20057;-76
2023/05/24 11:35:27;;;;;;;5.15;2.03;;;19.50;94.60;;;;;;5042109;28;20169;-74
2023/05/24 11:38:42;;;;;;;5.07;2.00;;;20.00;94.80;;;;;;5040677;28;20045;-75
2023/05/24 11:41:25;;;;;;;5.03;2.42;;;20.00;94.80;;;;;;5037233;28;20098;-77
2023/05/24 11:44:38;;;;;;;6.78;2.22;;;20.10;95.30;;;;;;5042031;28;20100;-74
2023/05/24 11:47:49;;;;;;;5.50;1.95;;;20.20;94.90;;;;;;5038885;28;20141;-74
2023/05/24 11:50:51;;;;;;;5.85;2.00;;;20.30;94.70;;;;;;4996668;28;20496;-75
2023/05/24 11:53:21;;;;;;;6.57;2.50;;;20.40;94.50;;;;;;5011746;28;20049;-74
2023/05/24 11:56:20;;;;;;;6.85;2.08;;;20.60;94.60;;;;;;5010854;28;20049;-75
2023/05/24 11:59:49;;;;;;;5.50;1.98;;;20.80;94.50;;;;;;5042563;28;20175;-75
2023/05/24 12:03:06;;;;;;;10.15;2.40;;;20.80;91.90;;;;;;5040786;28;20531;-76
2023/05/24 12:06:21;;;;;;;7.63;2.25;;;20.90;93.10;;;;;;5045955;28;20041;-75
2023/05/24 12:08:54;;;;;;;8.88;2.15;;;20.90;93.20;;;;;;5023786;28;20041;-74
2023/05/24 12:11:35;;;;;;;8.00;2.40;;;21.00;93.70;;;;;;5069978;28;20040;-74
2023/05/24 12:14:49;;;;;;;7.20;2.45;;;21.00;93.50;;;;;;5049320;28;20415;-77
2023/05/24 12:17:31;;;;;;;6.85;2.25;;;20.90;93.20;;;;;;5041916;28;20195;-75
2023/05/24 12:20:37;;;;;;;7.25;2.60;;;20.80;93.20;;;;;;5038102;28;20064;-78
2023/05/24 12:24:23;;;;;;;6.43;2.17;;;21.20;93.00;;;;;;5040683;28;20118;-75
2023/05/24 12:27:35;;;;;;;6.70;2.75;;;21.50;92.70;;;;;;5043466;28;20040;-75
2023/05/24 12:30:43;;;;;;;5.63;2.13;;;21.00;92.20;;;;;;5040999;28;20503;-75
2023/05/24 12:33:36;;;;;;;7.78;2.40;;;22.30;91.60;;;;;;5042055;28;20049;-75
2023/05/24 12:36:31;;;;;;;7.20;2.42;;;22.60;91.60;;;;;;5041701;28;20064;-75
2023/05/24 12:43:06;;;;;;;7.18;2.33;;;22.80;90.70;;;;;;5041763;28;20076;-77
2023/05/24 12:46:35;;;;;;;6.18;2.47;;;24.00;90.60;;;;;;4997791;28;20076;-75
2023/05/24 12:49:13;;;;;;;5.05;1.98;;;23.30;90.20;;;;;;5001620;28;20080;-75
2023/05/24 12:52:22;;;;;;;5.95;2.28;;;23.40;89.10;;;;;;5041712;28;20106;-75
2023/05/24 12:55:00;;;;;;;5.93;1.88;;;23.50;88.80;;;;;;5025118;28;20177;-76
2023/05/24 12:57:29;;;;;;;5.65;2.10;;;23.70;87.90;;;;;;5039929;28;20837;-75
2023/05/24 12:59:55;;;;;;;6.97;2.42;;;24.10;87.50;;;;;;5012721;28;20683;-73
2023/05/24 13:02:21;;;;;;;5.25;2.25;;;24.30;86.00;;;;;;5037659;28;20045;-74
2023/05/24 13:04:47;;;;;;;7.93;2.30;;;23.80;84.50;;;;;;5006413;28;20095;-73
2023/05/24 13:07:22;;;;;;;8.13;2.03;;;24.20;82.60;;;;;;5023736;28;20052;-73
2023/05/24 13:09:48;;;;;;;8.82;2.58;;;24.30;82.90;;;;;;5009742;28;20056;-74
2023/05/24 13:12:14;;;;;;;9.35;2.40;;;24.40;82.70;;;;;;5041983;28;20442;-73
2023/05/24 13:14:41;;;;;;;9.73;2.60;;;24.60;82.10;;;;;;5041199;28;20079;-75
2023/05/24 13:17:06;;;;;;;8.63;2.42;;;24.70;82.00;;;;;;5058318;28;20052;-73
2023/05/24 13:19:32;;;;;;;7.90;2.42;;;24.70;81.90;;;;;;5041458;28;20052;-74
2023/05/24 13:21:58;;;;;;;6.35;2.30;;;24.70;81.10;;;;;;5038767;28;20072;-75